ADDS METAR Data INFO
IDs: Format: Raw Decoded Include TAF

Data at: 0758 UTC 23 Jul 2018

KBMI 230756Z AUTO 33004KT 5SM BR CLR 17/17 A2995 RMK AO2 SLP159 T01720167
KBMI 230656Z AUTO 35006KT 8SM CLR 18/17 A2995 RMK AO2 SLP157 T01780172
KBMI 230456Z AUTO 02006KT 7SM CLR 18/18 A2995 RMK AO2 SLP156 T01830178
KBMI 230356Z AUTO 03009KT 10SM CLR 20/18 A2995 RMK AO2 SLP156 T02000183
KBMI 230256Z 36009KT 10SM BKN070 21/19 A2995 RMK AO2 SLP154 60003 T02110194 51015
KBMI 230156Z 35012KT 10SM FEW022 SCT041 OVC050 21/20 A2994 RMK AO2 SLP152 T02110200
KBMI 230056Z 34009KT 10SM SCT014 BKN065 BKN090 22/21 A2992 RMK AO2 RAB19E47 SLP147 P0003 T02170206
KBMI 222356Z 34018G22KT 10SM BKN018 BKN095 23/19 A2990 RMK AO2 SLP139 60000 T02330194 10244 20217 53009
KBMI 222256Z 34019G23KT 10SM BKN017 24/20 A2989 RMK AO2 SLP132 T02440200
KBMI 222156Z 33019KT 10SM BKN015 BKN050 BKN065 24/20 A2988 RMK AO2 SLP130 T02440200
KBMI 222152Z 34016G19KT 10SM BKN019 BKN048 OVC060 24/21 A2988 RMK AO2
KBMI 222144Z 33015G19KT 10SM SCT019 BKN048 OVC060 24/21 A2988 RMK AO2
KBMI 222056Z 33014KT 10SM BKN016 23/19 A2989 RMK AO2 RAE05 SLP134 P0000 60000 T02280194 53002
KBMI 221956Z 33013KT 10SM -RA OVC016 22/19 A2988 RMK AO2 RAB45 SLP133 P0000 T02170194
KBMI 221856Z 34011KT 10SM BKN018 OVC025 23/19 A2988 RMK AO2 SLP132 T02280189
KBMI 221756Z 34015KT 10SM BKN016 OVC023 22/19 A2988 RMK AO2 SLP132 T02220189 10233 20194 50003
KBMI 221656Z 34015KT 10SM BKN016 OVC022 22/19 A2988 RMK AO2 SLP133 T02220189
KBMI 221556Z 36014KT 10SM SCT016 OVC021 22/18 A2988 RMK AO2 SLP132 T02170183
KBMI 221456Z 36015G20KT 10SM BKN015 OVC021 23/19 A2987 RMK AO2 SLP127 T02330189 51006
KBMI 221448Z 36016KT 10SM OVC015 22/19 A2987 RMK AO2
KBMI 221356Z 35015KT 10SM OVC011 21/19 A2987 RMK AO2 SLP129 T02110189
KBMI 221256Z 35014KT 10SM OVC009 21/19 A2986 RMK AO2 CIG 007V011 SLP125 T02060189
KBMI 221156Z 36014KT 10SM BKN007 19/18 A2985 RMK AO2 SLP120 60000 70026 T01940183 10200 20194 53001
KBMI 221056Z 34013KT 10SM BKN009 OVC018 19/18 A2986 RMK AO2 CIG 007V011 SLP122 T01940183
KBMI 220956Z AUTO 35015G20KT 10SM OVC007 19/18 A2983 RMK AO2 RAE08B30E47 CIG 006V010 SLP113 P0000 T01940183
KBMI 220856Z AUTO 33015KT 5SM -RA BR BKN009 OVC018 19/18 A2985 RMK AO2 RAB52 CIG 005V012 SLP119 P0000 60000 T01940183 55001
KBMI 220756Z AUTO 33013KT 10SM OVC009 19/18 A2984 RMK AO2 CIG 007V012 SLP116 T01940183
KBMI 220656Z AUTO 34015KT 10SM OVC009 20/18 A2984 RMK AO2 SLP114 T02000183
KBMI 220556Z AUTO 34014KT 10SM BKN009 BKN022 OVC048 20/19 A2985 RMK AO2 CIG 007V012 SLP120 60026 T02000189 10256 20200 402670200 50000
KBMI 220535Z AUTO 34012KT 10SM BKN009 BKN025 OVC047 20/19 A2985 RMK AO2
KBMI 220456Z AUTO 34011KT 10SM FEW007 SCT018 OVC040 20/19 A2985 RMK AO2 SLP121 T02000189 TSNO
KBMI 220454Z AUTO 34012KT 10SM FEW007 SCT018 OVC040 20/19 A2985 RMK AO2
KBMI 220356Z AUTO 34016G20KT 10SM BKN043 20/19 A2985 RMK AO2 SLP121 T02000189
KBMI 220256Z 33014KT 10SM FEW027 SCT035 BKN070 21/19 A2986 RMK AO2 RAE0157 SLP124 60026 T02060189 51010
KBMI 220156Z 32010KT 10SM -RA SCT050 BKN075 21/19 A2986 RMK AO2 PK WND 01027/0107 SLP124 P0017 T02060189
KBMI 220111Z 35022G27KT 3SM R20/4500VP6000FT +RA BR SCT018 BKN032 OVC042 21/19 A2985 RMK AO2 PK WND 01027/0107 P0012
KBMI 220056Z 35010G17KT 10SM -RA SCT039 BKN080 23/20 A2984 RMK AO2 RAB22 SLP116 P0009 T02280200
KBMI 212356Z 33012KT 10SM SCT041 26/18 A2983 RMK AO2 SLP112 T02560183 10267 20244 58001
KBMI 212256Z 32014G20KT 10SM SCT038 26/19 A2983 RMK AO2 SLP113 T02610189
KBMI 212156Z 33018KT 10SM SCT033 27/19 A2983 RMK AO2 PK WND 31026/2135 SLP113 T02670194
KBMI 212056Z COR 34020KT 10SM SCT032 BKN039 BKN055 25/18 A2983 RMK AO2 PK WND 31026/2025 SLP113 T02500183 50003